sensor_id;sensor_type;location;lat;lon;timestamp;temperature;humidity
8338;DHT22;4206;48.634;9.516;2023-09-18T00:01:18;20.90;99.90
8338;DHT22;4206;48.634;9.516;2023-09-18T00:03:47;21.10;99.90
8338;DHT22;4206;48.634;9.516;2023-09-18T00:06:14;20.20;99.90
8338;DHT22;4206;48.634;9.516;2023-09-18T00:08:42;21.30;99.90
8338;DHT22;4206;48.634;9.516;2023-09-18T00:11:09;21.60;99.90
8338;DHT22;4206;48.634;9.516;2023-09-18T00:13:37;21.80;99.90
8338;DHT22;4206;48.634;9.516;2023-09-18T00:16:04;22.00;99.90
8338;DHT22;4206;48.634;9.516;2023-09-18T00:18:31;22.10;99.90
8338;DHT22;4206;48.634;9.516;2023-09-18T00:20:59;22.20;99.90
8338;DHT22;4206;48.634;9.516;2023-09-18T00:23:28;22.30;99.90
8338;DHT22;4206;48.634;9.516;2023-09-18T00:25:55;23.00;99.90
8338;DHT22;4206;48.634;9.516;2023-09-18T00:28:22;22.00;99.90
8338;DHT22;4206;48.634;9.516;2023-09-18T00:30:50;21.80;99.90
8338;DHT22;4206;48.634;9.516;2023-09-18T00:33:17;21.10;99.90
8338;DHT22;4206;48.634;9.516;2023-09-18T00:35:49;20.90;99.90
8338;DHT22;4206;48.634;9.516;2023-09-18T00:38:17;21.00;99.90
8338;DHT22;4206;48.634;9.516;2023-09-18T00:40:46;21.20;99.90
8338;DHT22;4206;48.634;9.516;2023-09-18T00:43:28;21.10;99.90
8338;DHT22;4206;48.634;9.516;2023-09-18T00:46:13;20.90;99.90
8338;DHT22;4206;48.634;9.516;2023-09-18T00:48:42;20.40;99.90
8338;DHT22;4206;48.634;9.516;2023-09-18T00:51:10;20.70;99.90
8338;DHT22;4206;48.634;9.516;2023-09-18T00:53:37;20.60;99.90
8338;DHT22;4206;48.634;9.516;2023-09-18T00:56:10;19.90;99.90
8338;DHT22;4206;48.634;9.516;2023-09-18T00:58:40;20.40;99.90
8338;DHT22;4206;48.634;9.516;2023-09-18T01:01:07;20.30;99.90
8338;DHT22;4206;48.634;9.516;2023-09-18T01:03:35;20.20;99.90
8338;DHT22;4206;48.634;9.516;2023-09-18T01:06:04;20.20;99.90
8338;DHT22;4206;48.634;9.516;2023-09-18T01:08:31;20.20;99.90
8338;DHT22;4206;48.634;9.516;2023-09-18T01:11:10;20.10;99.90
8338;DHT22;4206;48.634;9.516;2023-09-18T01:13:51;20.10;99.90
8338;DHT22;4206;48.634;9.516;2023-09-18T01:16:27;20.10;99.90
8338;DHT22;4206;48.634;9.516;2023-09-18T01:18:58;20.10;99.90
8338;DHT22;4206;48.634;9.516;2023-09-18T01:21:25;19.90;99.90
8338;DHT22;4206;48.634;9.516;2023-09-18T01:23:52;20.00;99.90
8338;DHT22;4206;48.634;9.516;2023-09-18T01:26:19;20.20;99.90
8338;DHT22;4206;48.634;9.516;2023-09-18T01:28:46;20.40;99.90
8338;DHT22;4206;48.634;9.516;2023-09-18T01:31:13;20.20;99.90
8338;DHT22;4206;48.634;9.516;2023-09-18T01:33:41;20.20;99.90
8338;DHT22;4206;48.634;9.516;2023-09-18T01:36:08;19.80;99.90
8338;DHT22;4206;48.634;9.516;2023-09-18T01:38:40;20.20;99.90
8338;DHT22;4206;48.634;9.516;2023-09-18T01:41:07;19.70;99.90
8338;DHT22;4206;48.634;9.516;2023-09-18T01:43:38;20.10;99.90
8338;DHT22;4206;48.634;9.516;2023-09-18T01:46:05;20.00;99.90
8338;DHT22;4206;48.634;9.516;2023-09-18T01:48:32;20.00;99.90
8338;DHT22;4206;48.634;9.516;2023-09-18T01:50:59;19.50;99.90
8338;DHT22;4206;48.634;9.516;2023-09-18T01:53:26;20.00;99.90
8338;DHT22;4206;48.634;9.516;2023-09-18T01:55:53;19.90;99.90
8338;DHT22;4206;48.634;9.516;2023-09-18T01:58:20;19.90;99.90
8338;DHT22;4206;48.634;9.516;2023-09-18T02:00:48;20.00;99.90
8338;DHT22;4206;48.634;9.516;2023-09-18T02:03:15;20.00;99.90
8338;DHT22;4206;48.634;9.516;2023-09-18T02:06:04;20.30;99.90
8338;DHT22;4206;48.634;9.516;2023-09-18T02:08:32;20.50;99.90
8338;DHT22;4206;48.634;9.516;2023-09-18T02:10:59;20.80;99.90
8338;DHT22;4206;48.634;9.516;2023-09-18T02:13:26;20.70;99.90
8338;DHT22;4206;48.634;9.516;2023-09-18T02:15:54;20.30;99.90
8338;DHT22;4206;48.634;9.516;2023-09-18T02:18:21;20.50;99.90
8338;DHT22;4206;48.634;9.516;2023-09-18T02:20:56;20.40;99.90
8338;DHT22;4206;48.634;9.516;2023-09-18T02:23:22;20.40;99.90
8338;DHT22;4206;48.634;9.516;2023-09-18T02:25:57;20.50;99.90
8338;DHT22;4206;48.634;9.516;2023-09-18T02:28:25;20.30;99.90
8338;DHT22;4206;48.634;9.516;2023-09-18T02:30:52;20.20;99.90
8338;DHT22;4206;48.634;9.516;2023-09-18T02:33:19;20.20;99.90
8338;DHT22;4206;48.634;9.516;2023-09-18T02:35:46;20.30;99.90
8338;DHT22;4206;48.634;9.516;2023-09-18T02:38:14;20.30;99.90
8338;DHT22;4206;48.634;9.516;2023-09-18T02:40:41;20.30;99.90
8338;DHT22;4206;48.634;9.516;2023-09-18T02:43:08;19.80;99.90
8338;DHT22;4206;48.634;9.516;2023-09-18T02:45:35;20.30;99.90
8338;DHT22;4206;48.634;9.516;2023-09-18T02:48:02;19.90;99.90
8338;DHT22;4206;48.634;9.516;2023-09-18T02:50:29;20.10;99.90
8338;DHT22;4206;48.634;9.516;2023-09-18T02:52:56;20.30;99.90
8338;DHT22;4206;48.634;9.516;2023-09-18T02:55:23;20.20;99.90
8338;DHT22;4206;48.634;9.516;2023-09-18T02:57:50;20.00;99.90
8338;DHT22;4206;48.634;9.516;2023-09-18T03:00:17;20.00;99.90
8338;DHT22;4206;48.634;9.516;2023-09-18T03:03:03;19.90;99.90
8338;DHT22;4206;48.634;9.516;2023-09-18T03:05:31;19.90;99.90
8338;DHT22;4206;48.634;9.516;2023-09-18T03:07:58;19.80;99.90
8338;DHT22;4206;48.634;9.516;2023-09-18T03:10:25;19.80;99.90
8338;DHT22;4206;48.634;9.516;2023-09-18T03:12:52;19.80;99.90
8338;DHT22;4206;48.634;9.516;2023-09-18T03:15:20;19.80;99.90
8338;DHT22;4206;48.634;9.516;2023-09-18T03:17:48;19.70;99.90
8338;DHT22;4206;48.634;9.516;2023-09-18T03:20:17;19.60;99.90
8338;DHT22;4206;48.634;9.516;2023-09-18T03:22:44;19.50;99.90
8338;DHT22;4206;48.634;9.516;2023-09-18T03:25:11;19.30;99.90
8338;DHT22;4206;48.634;9.516;2023-09-18T03:27:38;19.40;99.90
8338;DHT22;4206;48.634;9.516;2023-09-18T03:30:06;19.30;99.90
8338;DHT22;4206;48.634;9.516;2023-09-18T03:32:33;19.20;99.90
8338;DHT22;4206;48.634;9.516;2023-09-18T03:35:00;19.20;99.90
8338;DHT22;4206;48.634;9.516;2023-09-18T03:37:28;18.70;99.90
8338;DHT22;4206;48.634;9.516;2023-09-18T03:39:55;19.20;99.90
8338;DHT22;4206;48.634;9.516;2023-09-18T03:42:21;19.10;99.90
8338;DHT22;4206;48.634;9.516;2023-09-18T03:44:48;19.00;99.90
8338;DHT22;4206;48.634;9.516;2023-09-18T03:47:15;18.90;99.90
8338;DHT22;4206;48.634;9.516;2023-09-18T03:49:42;18.90;99.90
8338;DHT22;4206;48.634;9.516;2023-09-18T03:52:09;18.90;99.90
8338;DHT22;4206;48.634;9.516;2023-09-18T03:54:36;18.90;99.90
8338;DHT22;4206;48.634;9.516;2023-09-18T03:57:03;18.90;99.90
8338;DHT22;4206;48.634;9.516;2023-09-18T03:59:36;18.80;99.90
8338;DHT22;4206;48.634;9.516;2023-09-18T04:02:04;18.90;99.90
8338;DHT22;4206;48.634;9.516;2023-09-18T04:04:33;19.10;99.90
8338;DHT22;4206;48.634;9.516;2023-09-18T04:07:00;19.30;99.90
8338;DHT22;4206;48.634;9.516;2023-09-18T04:09:32;19.50;99.90
8338;DHT22;4206;48.634;9.516;2023-09-18T04:11:59;19.40;99.90
8338;DHT22;4206;48.634;9.516;2023-09-18T04:14:26;19.40;99.90
8338;DHT22;4206;48.634;9.516;2023-09-18T04:16:53;19.40;99.90
8338;DHT22;4206;48.634;9.516;2023-09-18T04:19:20;19.30;99.90
8338;DHT22;4206;48.634;9.516;2023-09-18T04:21:47;19.20;99.90
8338;DHT22;4206;48.634;9.516;2023-09-18T04:24:14;19.20;99.90
8338;DHT22;4206;48.634;9.516;2023-09-18T04:26:41;19.00;99.90
8338;DHT22;4206;48.634;9.516;2023-09-18T04:29:09;19.10;99.90
8338;DHT22;4206;48.634;9.516;2023-09-18T04:31:36;19.10;99.90
8338;DHT22;4206;48.634;9.516;2023-09-18T04:34:05;19.00;99.90
8338;DHT22;4206;48.634;9.516;2023-09-18T04:36:32;19.20;99.90
8338;DHT22;4206;48.634;9.516;2023-09-18T04:39:01;19.10;99.90
8338;DHT22;4206;48.634;9.516;2023-09-18T04:41:30;18.80;99.90
8338;DHT22;4206;48.634;9.516;2023-09-18T04:43:56;19.10;99.90
8338;DHT22;4206;48.634;9.516;2023-09-18T04:46:24;19.00;99.90
8338;DHT22;4206;48.634;9.516;2023-09-18T04:48:51;19.00;99.90
8338;DHT22;4206;48.634;9.516;2023-09-18T04:51:19;19.10;99.90
8338;DHT22;4206;48.634;9.516;2023-09-18T04:53:46;19.10;99.90
8338;DHT22;4206;48.634;9.516;2023-09-18T04:56:13;19.00;99.90
8338;DHT22;4206;48.634;9.516;2023-09-18T04:58:40;18.90;99.90
8338;DHT22;4206;48.634;9.516;2023-09-18T05:01:07;19.00;99.90
8338;DHT22;4206;48.634;9.516;2023-09-18T05:03:35;18.90;99.90
8338;DHT22;4206;48.634;9.516;2023-09-18T05:06:02;18.80;99.90
8338;DHT22;4206;48.634;9.516;2023-09-18T05:08:31;18.80;99.90
8338;DHT22;4206;48.634;9.516;2023-09-18T05:10:58;18.80;99.90
8338;DHT22;4206;48.634;9.516;2023-09-18T05:13:26;18.80;99.90
8338;DHT22;4206;48.634;9.516;2023-09-18T05:15:53;19.00;99.90
8338;DHT22;4206;48.634;9.516;2023-09-18T05:18:20;18.50;99.90
8338;DHT22;4206;48.634;9.516;2023-09-18T05:20:48;18.70;99.90
8338;DHT22;4206;48.634;9.516;2023-09-18T05:23:15;18.70;99.90
8338;DHT22;4206;48.634;9.516;2023-09-18T05:25:44;18.70;99.90
8338;DHT22;4206;48.634;9.516;2023-09-18T05:28:11;18.80;99.90
8338;DHT22;4206;48.634;9.516;2023-09-18T05:30:38;18.90;99.90
8338;DHT22;4206;48.634;9.516;2023-09-18T05:33:06;18.80;99.90
8338;DHT22;4206;48.634;9.516;2023-09-18T05:35:35;18.90;99.90
8338;DHT22;4206;48.634;9.516;2023-09-18T05:38:04;18.70;99.90
8338;DHT22;4206;48.634;9.516;2023-09-18T05:40:32;18.80;99.90
8338;DHT22;4206;48.634;9.516;2023-09-18T05:42:59;18.80;99.90
8338;DHT22;4206;48.634;9.516;2023-09-18T05:45:26;19.00;99.90
8338;DHT22;4206;48.634;9.516;2023-09-18T05:47:54;18.90;99.90
8338;DHT22;4206;48.634;9.516;2023-09-18T05:50:28;19.00;99.90
8338;DHT22;4206;48.634;9.516;2023-09-18T05:52:57;19.10;99.90
8338;DHT22;4206;48.634;9.516;2023-09-18T05:55:27;19.10;99.90
8338;DHT22;4206;48.634;9.516;2023-09-18T05:57:54;19.20;99.90
8338;DHT22;4206;48.634;9.516;2023-09-18T06:00:21;19.20;99.90
8338;DHT22;4206;48.634;9.516;2023-09-18T06:02:48;19.30;99.90
8338;DHT22;4206;48.634;9.516;2023-09-18T06:05:18;19.30;99.90
8338;DHT22;4206;48.634;9.516;2023-09-18T06:07:49;19.30;99.90
8338;DHT22;4206;48.634;9.516;2023-09-18T06:10:17;19.50;99.90
8338;DHT22;4206;48.634;9.516;2023-09-18T06:12:45;19.40;99.90
8338;DHT22;4206;48.634;9.516;2023-09-18T06:15:12;19.50;99.90
8338;DHT22;4206;48.634;9.516;2023-09-18T06:17:40;19.60;99.90
8338;DHT22;4206;48.634;9.516;2023-09-18T06:20:09;19.70;99.90
8338;DHT22;4206;48.634;9.516;2023-09-18T06:22:37;19.80;99.90
8338;DHT22;4206;48.634;9.516;2023-09-18T06:25:06;19.90;99.90
8338;DHT22;4206;48.634;9.516;2023-09-18T06:27:35;19.90;99.90
8338;DHT22;4206;48.634;9.516;2023-09-18T06:30:06;20.10;99.90
8338;DHT22;4206;48.634;9.516;2023-09-18T06:32:33;20.30;99.90
8338;DHT22;4206;48.634;9.516;2023-09-18T06:35:00;20.40;99.90
8338;DHT22;4206;48.634;9.516;2023-09-18T06:37:27;20.40;99.90
8338;DHT22;4206;48.634;9.516;2023-09-18T06:39:55;20.40;99.90
8338;DHT22;4206;48.634;9.516;2023-09-18T06:42:23;20.40;99.90
8338;DHT22;4206;48.634;9.516;2023-09-18T06:44:50;20.40;99.90
8338;DHT22;4206;48.634;9.516;2023-09-18T06:47:17;20.50;99.90
8338;DHT22;4206;48.634;9.516;2023-09-18T06:49:44;20.60;99.90
8338;DHT22;4206;48.634;9.516;2023-09-18T06:52:11;20.50;99.90
8338;DHT22;4206;48.634;9.516;2023-09-18T06:54:39;20.50;99.90
8338;DHT22;4206;48.634;9.516;2023-09-18T06:57:07;20.50;99.90
8338;DHT22;4206;48.634;9.516;2023-09-18T06:59:34;20.50;99.90
8338;DHT22;4206;48.634;9.516;2023-09-18T07:02:02;20.50;99.90
8338;DHT22;4206;48.634;9.516;2023-09-18T07:04:29;20.60;99.90
8338;DHT22;4206;48.634;9.516;2023-09-18T07:06:56;20.40;99.90
8338;DHT22;4206;48.634;9.516;2023-09-18T07:09:24;20.60;99.90
8338;DHT22;4206;48.634;9.516;2023-09-18T07:11:51;20.70;99.90
8338;DHT22;4206;48.634;9.516;2023-09-18T07:14:18;20.70;99.90
8338;DHT22;4206;48.634;9.516;2023-09-18T07:16:46;20.70;99.90
8338;DHT22;4206;48.634;9.516;2023-09-18T07:19:13;20.80;99.90
8338;DHT22;4206;48.634;9.516;2023-09-18T07:21:44;20.90;99.90
8338;DHT22;4206;48.634;9.516;2023-09-18T07:24:11;20.90;99.90
8338;DHT22;4206;48.634;9.516;2023-09-18T07:26:45;21.00;99.90
8338;DHT22;4206;48.634;9.516;2023-09-18T07:29:15;21.00;99.90
8338;DHT22;4206;48.634;9.516;2023-09-18T07:31:43;21.10;99.90
8338;DHT22;4206;48.634;9.516;2023-09-18T07:34:10;21.20;99.90
8338;DHT22;4206;48.634;9.516;2023-09-18T07:36:40;21.40;99.90
8338;DHT22;4206;48.634;9.516;2023-09-18T07:39:07;21.40;99.90
8338;DHT22;4206;48.634;9.516;2023-09-18T07:41:34;21.50;99.90
8338;DHT22;4206;48.634;9.516;2023-09-18T07:44:01;21.60;99.90
8338;DHT22;4206;48.634;9.516;2023-09-18T07:46:28;21.80;99.90
8338;DHT22;4206;48.634;9.516;2023-09-18T07:48:55;21.90;99.90
8338;DHT22;4206;48.634;9.516;2023-09-18T07:51:22;22.10;99.90
8338;DHT22;4206;48.634;9.516;2023-09-18T07:53:50;21.90;99.90
8338;DHT22;4206;48.634;9.516;2023-09-18T07:56:17;21.90;99.90
8338;DHT22;4206;48.634;9.516;2023-09-18T07:58:46;21.90;99.90
8338;DHT22;4206;48.634;9.516;2023-09-18T08:01:13;21.90;99.90
8338;DHT22;4206;48.634;9.516;2023-09-18T08:03:42;21.90;99.90
8338;DHT22;4206;48.634;9.516;2023-09-18T08:06:09;22.00;99.90
8338;DHT22;4206;48.634;9.516;2023-09-18T08:08:38;22.00;99.90
8338;DHT22;4206;48.634;9.516;2023-09-18T08:11:08;22.20;99.90
8338;DHT22;4206;48.634;9.516;2023-09-18T08:13:35;22.20;99.90
8338;DHT22;4206;48.634;9.516;2023-09-18T08:16:05;22.30;99.90
8338;DHT22;4206;48.634;9.516;2023-09-18T08:18:32;22.30;99.90
8338;DHT22;4206;48.634;9.516;2023-09-18T08:20:59;22.40;99.90
8338;DHT22;4206;48.634;9.516;2023-09-18T08:23:27;22.40;99.90
8338;DHT22;4206;48.634;9.516;2023-09-18T08:25:54;22.10;99.90
8338;DHT22;4206;48.634;9.516;2023-09-18T08:28:24;22.30;99.90
8338;DHT22;4206;48.634;9.516;2023-09-18T08:30:51;22.20;99.90
8338;DHT22;4206;48.634;9.516;2023-09-18T08:33:18;22.10;99.90
8338;DHT22;4206;48.634;9.516;2023-09-18T08:35:45;22.00;99.90
8338;DHT22;4206;48.634;9.516;2023-09-18T08:38:14;21.90;99.90
8338;DHT22;4206;48.634;9.516;2023-09-18T08:40:42;21.80;99.90
8338;DHT22;4206;48.634;9.516;2023-09-18T08:43:12;21.70;99.90
8338;DHT22;4206;48.634;9.516;2023-09-18T08:45:47;21.50;99.90
8338;DHT22;4206;48.634;9.516;2023-09-18T08:48:19;21.40;99.90
8338;DHT22;4206;48.634;9.516;2023-09-18T08:50:47;21.30;99.90
8338;DHT22;4206;48.634;9.516;2023-09-18T08:53:15;21.30;99.90
8338;DHT22;4206;48.634;9.516;2023-09-18T08:55:42;21.20;99.90
8338;DHT22;4206;48.634;9.516;2023-09-18T08:58:09;21.20;99.90
8338;DHT22;4206;48.634;9.516;2023-09-18T09:00:37;21.20;99.90
8338;DHT22;4206;48.634;9.516;2023-09-18T09:03:04;21.20;99.90
8338;DHT22;4206;48.634;9.516;2023-09-18T09:05:32;21.10;99.90
8338;DHT22;4206;48.634;9.516;2023-09-18T09:07:59;21.10;99.90
8338;DHT22;4206;48.634;9.516;2023-09-18T09:10:28;21.10;99.90
8338;DHT22;4206;48.634;9.516;2023-09-18T09:12:58;21.10;99.90
8338;DHT22;4206;48.634;9.516;2023-09-18T09:15:27;21.00;99.90
8338;DHT22;4206;48.634;9.516;2023-09-18T09:18:10;20.90;99.90
8338;DHT22;4206;48.634;9.516;2023-09-18T09:20:38;20.70;99.90
8338;DHT22;4206;48.634;9.516;2023-09-18T09:23:09;20.60;99.90
8338;DHT22;4206;48.634;9.516;2023-09-18T09:25:36;20.50;99.90
8338;DHT22;4206;48.634;9.516;2023-09-18T09:28:06;20.40;99.90
8338;DHT22;4206;48.634;9.516;2023-09-18T09:30:34;20.10;99.90
8338;DHT22;4206;48.634;9.516;2023-09-18T09:33:04;19.80;99.90
8338;DHT22;4206;48.634;9.516;2023-09-18T09:35:33;19.60;99.90
8338;DHT22;4206;48.634;9.516;2023-09-18T09:40:35;19.30;99.90
8338;DHT22;4206;48.634;9.516;2023-09-18T09:43:08;19.20;99.90
8338;DHT22;4206;48.634;9.516;2023-09-18T09:45:35;19.30;99.90
8338;DHT22;4206;48.634;9.516;2023-09-18T09:48:04;19.30;99.90
8338;DHT22;4206;48.634;9.516;2023-09-18T09:50:34;19.20;99.90
8338;DHT22;4206;48.634;9.516;2023-09-18T09:53:12;19.20;99.90
8338;DHT22;4206;48.634;9.516;2023-09-18T09:55:41;19.10;99.90
8338;DHT22;4206;48.634;9.516;2023-09-18T09:58:09;19.20;99.90
8338;DHT22;4206;48.634;9.516;2023-09-18T10:00:53;19.20;99.90
8338;DHT22;4206;48.634;9.516;2023-09-18T10:03:22;19.20;99.90
8338;DHT22;4206;48.634;9.516;2023-09-18T10:05:51;19.20;99.90
8338;DHT22;4206;48.634;9.516;2023-09-18T10:08:24;19.20;99.90
8338;DHT22;4206;48.634;9.516;2023-09-18T10:11:01;19.20;99.90
8338;DHT22;4206;48.634;9.516;2023-09-18T10:13:46;19.20;99.90
8338;DHT22;4206;48.634;9.516;2023-09-18T10:16:16;19.30;99.90
8338;DHT22;4206;48.634;9.516;2023-09-18T10:21:39;19.20;99.90
8338;DHT22;4206;48.634;9.516;2023-09-18T10:29:29;19.20;99.90
8338;DHT22;4206;48.634;9.516;2023-09-18T10:31:57;19.20;99.90
8338;DHT22;4206;48.634;9.516;2023-09-18T10:34:25;19.10;99.90
8338;DHT22;4206;48.634;9.516;2023-09-18T10:36:53;19.10;99.90
8338;DHT22;4206;48.634;9.516;2023-09-18T10:39:21;19.00;99.90
8338;DHT22;4206;48.634;9.516;2023-09-18T10:41:54;18.90;99.90
8338;DHT22;4206;48.634;9.516;2023-09-18T10:44:22;18.70;99.90
8338;DHT22;4206;48.634;9.516;2023-09-18T10:46:51;18.50;99.90
8338;DHT22;4206;48.634;9.516;2023-09-18T10:49:20;18.50;99.90
8338;DHT22;4206;48.634;9.516;2023-09-18T10:51:53;18.40;99.90
8338;DHT22;4206;48.634;9.516;2023-09-18T10:54:23;18.40;99.90
8338;DHT22;4206;48.634;9.516;2023-09-18T10:56:51;18.40;99.90
8338;DHT22;4206;48.634;9.516;2023-09-18T10:59:20;18.40;99.90
8338;DHT22;4206;48.634;9.516;2023-09-18T11:01:50;18.30;99.90
8338;DHT22;4206;48.634;9.516;2023-09-18T11:04:20;18.30;99.90
8338;DHT22;4206;48.634;9.516;2023-09-18T11:20:16;18.10;99.90
8338;DHT22;4206;48.634;9.516;2023-09-18T11:22:49;18.10;99.90
8338;DHT22;4206;48.634;9.516;2023-09-18T11:25:37;18.10;99.90
8338;DHT22;4206;48.634;9.516;2023-09-18T11:28:05;18.10;99.90
8338;DHT22;4206;48.634;9.516;2023-09-18T11:30:36;18.10;99.90
8338;DHT22;4206;48.634;9.516;2023-09-18T11:33:05;18.00;99.90
8338;DHT22;4206;48.634;9.516;2023-09-18T11:35:33;18.00;99.90
8338;DHT22;4206;48.634;9.516;2023-09-18T11:38:10;17.90;99.90
8338;DHT22;4206;48.634;9.516;2023-09-18T11:40:40;17.90;99.90
8338;DHT22;4206;48.634;9.516;2023-09-18T11:45:54;17.80;99.90
8338;DHT22;4206;48.634;9.516;2023-09-18T11:48:25;17.80;99.90
8338;DHT22;4206;48.634;9.516;2023-09-18T11:50:57;17.90;99.90
8338;DHT22;4206;48.634;9.516;2023-09-18T11:53:27;17.80;99.90
8338;DHT22;4206;48.634;9.516;2023-09-18T11:55:54;17.80;99.90
8338;DHT22;4206;48.634;9.516;2023-09-18T11:58:22;17.90;99.90
8338;DHT22;4206;48.634;9.516;2023-09-18T12:00:51;17.90;99.90
8338;DHT22;4206;48.634;9.516;2023-09-18T12:03:22;18.00;99.90
8338;DHT22;4206;48.634;9.516;2023-09-18T12:05:56;18.00;99.90
8338;DHT22;4206;48.634;9.516;2023-09-18T12:08:25;18.00;99.90
8338;DHT22;4206;48.634;9.516;2023-09-18T12:10:54;18.00;99.90
8338;DHT22;4206;48.634;9.516;2023-09-18T12:13:21;18.00;99.90
8338;DHT22;4206;48.634;9.516;2023-09-18T12:15:48;18.10;99.90
8338;DHT22;4206;48.634;9.516;2023-09-18T12:18:16;18.10;99.90
8338;DHT22;4206;48.634;9.516;2023-09-18T12:20:48;18.20;99.90
8338;DHT22;4206;48.634;9.516;2023-09-18T12:23:16;18.20;99.90
8338;DHT22;4206;48.634;9.516;2023-09-18T12:25:49;18.20;99.90
8338;DHT22;4206;48.634;9.516;2023-09-18T12:28:17;18.20;99.90
8338;DHT22;4206;48.634;9.516;2023-09-18T12:30:44;18.30;99.90
8338;DHT22;4206;48.634;9.516;2023-09-18T12:33:16;18.40;99.90
8338;DHT22;4206;48.634;9.516;2023-09-18T12:35:44;18.40;99.90
8338;DHT22;4206;48.634;9.516;2023-09-18T12:38:15;18.50;99.90
8338;DHT22;4206;48.634;9.516;2023-09-18T12:40:43;18.50;99.90
8338;DHT22;4206;48.634;9.516;2023-09-18T12:43:13;18.60;99.90
8338;DHT22;4206;48.634;9.516;2023-09-18T12:45:43;18.80;99.90
8338;DHT22;4206;48.634;9.516;2023-09-18T12:48:12;18.90;99.90
8338;DHT22;4206;48.634;9.516;2023-09-18T12:50:39;19.20;99.90
8338;DHT22;4206;48.634;9.516;2023-09-18T12:53:08;19.70;99.90
8338;DHT22;4206;48.634;9.516;2023-09-18T12:55:36;20.00;99.90
8338;DHT22;4206;48.634;9.516;2023-09-18T12:58:05;20.20;99.90
8338;DHT22;4206;48.634;9.516;2023-09-18T13:00:36;20.30;99.90
8338;DHT22;4206;48.634;9.516;2023-09-18T13:03:03;20.40;99.90
8338;DHT22;4206;48.634;9.516;2023-09-18T13:05:37;20.30;99.90
8338;DHT22;4206;48.634;9.516;2023-09-18T13:08:12;20.30;99.90
8338;DHT22;4206;48.634;9.516;2023-09-18T13:10:48;20.20;99.90
8338;DHT22;4206;48.634;9.516;2023-09-18T13:13:22;20.20;99.90
8338;DHT22;4206;48.634;9.516;2023-09-18T13:15:51;20.20;99.90
8338;DHT22;4206;48.634;9.516;2023-09-18T13:18:22;20.30;99.90
8338;DHT22;4206;48.634;9.516;2023-09-18T13:20:51;20.20;99.90
8338;DHT22;4206;48.634;9.516;2023-09-18T13:23:18;20.40;99.90
8338;DHT22;4206;48.634;9.516;2023-09-18T13:25:48;20.50;99.90
8338;DHT22;4206;48.634;9.516;2023-09-18T13:28:15;20.50;99.90
8338;DHT22;4206;48.634;9.516;2023-09-18T13:30:44;20.70;99.90
8338;DHT22;4206;48.634;9.516;2023-09-18T13:33:13;20.70;99.90
8338;DHT22;4206;48.634;9.516;2023-09-18T13:35:45;21.10;99.90
8338;DHT22;4206;48.634;9.516;2023-09-18T13:38:12;21.80;99.90
8338;DHT22;4206;48.634;9.516;2023-09-18T13:40:41;22.00;99.90
8338;DHT22;4206;48.634;9.516;2023-09-18T13:43:09;22.30;99.90
8338;DHT22;4206;48.634;9.516;2023-09-18T13:45:37;22.60;99.90
8338;DHT22;4206;48.634;9.516;2023-09-18T13:48:05;22.70;99.90
8338;DHT22;4206;48.634;9.516;2023-09-18T13:50:33;22.60;99.90
8338;DHT22;4206;48.634;9.516;2023-09-18T13:53:01;22.10;99.90
8338;DHT22;4206;48.634;9.516;2023-09-18T13:55:31;21.80;99.90
8338;DHT22;4206;48.634;9.516;2023-09-18T13:57:58;22.00;99.90
8338;DHT22;4206;48.634;9.516;2023-09-18T14:00:26;22.20;99.90
8338;DHT22;4206;48.634;9.516;2023-09-18T14:02:53;22.60;99.90
8338;DHT22;4206;48.634;9.516;2023-09-18T14:05:21;23.50;99.90
8338;DHT22;4206;48.634;9.516;2023-09-18T14:07:48;23.60;99.90
8338;DHT22;4206;48.634;9.516;2023-09-18T14:10:18;23.50;99.90
8338;DHT22;4206;48.634;9.516;2023-09-18T14:12:48;23.40;99.90
8338;DHT22;4206;48.634;9.516;2023-09-18T14:15:15;23.30;99.90
8338;DHT22;4206;48.634;9.516;2023-09-18T14:17:42;23.00;99.90
8338;DHT22;4206;48.634;9.516;2023-09-18T14:20:09;22.60;99.90
8338;DHT22;4206;48.634;9.516;2023-09-18T14:22:37;22.50;99.90
8338;DHT22;4206;48.634;9.516;2023-09-18T14:25:04;22.20;99.90
8338;DHT22;4206;48.634;9.516;2023-09-18T14:27:34;22.00;99.90
8338;DHT22;4206;48.634;9.516;2023-09-18T14:30:03;22.00;99.90
8338;DHT22;4206;48.634;9.516;2023-09-18T14:32:35;21.90;99.90
8338;DHT22;4206;48.634;9.516;2023-09-18T14:35:04;21.80;99.90
8338;DHT22;4206;48.634;9.516;2023-09-18T14:37:35;21.70;99.90
8338;DHT22;4206;48.634;9.516;2023-09-18T14:40:03;21.50;99.90
8338;DHT22;4206;48.634;9.516;2023-09-18T14:42:30;21.30;99.90
8338;DHT22;4206;48.634;9.516;2023-09-18T14:44:57;21.20;99.90
8338;DHT22;4206;48.634;9.516;2023-09-18T14:47:24;21.20;99.90
8338;DHT22;4206;48.634;9.516;2023-09-18T14:49:51;21.10;99.90
8338;DHT22;4206;48.634;9.516;2023-09-18T14:52:18;21.20;99.90
8338;DHT22;4206;48.634;9.516;2023-09-18T14:54:47;21.20;99.90
8338;DHT22;4206;48.634;9.516;2023-09-18T14:57:15;21.10;99.90
8338;DHT22;4206;48.634;9.516;2023-09-18T14:59:42;21.10;99.90
8338;DHT22;4206;48.634;9.516;2023-09-18T15:02:14;21.10;99.90
8338;DHT22;4206;48.634;9.516;2023-09-18T15:04:42;21.20;99.90
8338;DHT22;4206;48.634;9.516;2023-09-18T15:07:09;21.20;99.90
8338;DHT22;4206;48.634;9.516;2023-09-18T15:09:37;21.10;99.90
8338;DHT22;4206;48.634;9.516;2023-09-18T15:12:05;21.10;99.90
8338;DHT22;4206;48.634;9.516;2023-09-18T15:14:35;21.10;99.90
8338;DHT22;4206;48.634;9.516;2023-09-18T15:17:03;21.20;99.90
8338;DHT22;4206;48.634;9.516;2023-09-18T15:19:30;21.20;99.90
8338;DHT22;4206;48.634;9.516;2023-09-18T15:21:58;21.20;99.90
8338;DHT22;4206;48.634;9.516;2023-09-18T15:24:26;21.20;99.90
8338;DHT22;4206;48.634;9.516;2023-09-18T15:26:53;21.20;99.90
8338;DHT22;4206;48.634;9.516;2023-09-18T15:29:20;21.20;99.90
8338;DHT22;4206;48.634;9.516;2023-09-18T15:31:48;21.20;99.90
8338;DHT22;4206;48.634;9.516;2023-09-18T15:34:15;21.30;99.90
8338;DHT22;4206;48.634;9.516;2023-09-18T15:36:44;21.50;99.90
8338;DHT22;4206;48.634;9.516;2023-09-18T15:39:11;21.60;99.90
8338;DHT22;4206;48.634;9.516;2023-09-18T15:41:39;21.60;99.90
8338;DHT22;4206;48.634;9.516;2023-09-18T15:44:06;21.70;99.90
8338;DHT22;4206;48.634;9.516;2023-09-18T15:46:34;21.60;99.90
8338;DHT22;4206;48.634;9.516;2023-09-18T15:49:01;21.70;99.90
8338;DHT22;4206;48.634;9.516;2023-09-18T15:51:28;21.70;99.90
8338;DHT22;4206;48.634;9.516;2023-09-18T15:53:55;21.60;99.90
8338;DHT22;4206;48.634;9.516;2023-09-18T15:56:23;21.50;99.90
8338;DHT22;4206;48.634;9.516;2023-09-18T15:58:51;21.30;99.90
8338;DHT22;4206;48.634;9.516;2023-09-18T16:01:18;21.00;99.90
8338;DHT22;4206;48.634;9.516;2023-09-18T16:03:45;20.90;99.90
8338;DHT22;4206;48.634;9.516;2023-09-18T16:06:16;20.80;99.90
8338;DHT22;4206;48.634;9.516;2023-09-18T16:08:45;20.70;99.90
8338;DHT22;4206;48.634;9.516;2023-09-18T16:11:12;20.60;99.90
8338;DHT22;4206;48.634;9.516;2023-09-18T16:13:42;20.50;99.90
8338;DHT22;4206;48.634;9.516;2023-09-18T16:16:09;20.30;99.90
8338;DHT22;4206;48.634;9.516;2023-09-18T16:18:36;20.40;99.90
8338;DHT22;4206;48.634;9.516;2023-09-18T16:21:03;20.30;99.90
8338;DHT22;4206;48.634;9.516;2023-09-18T16:23:30;20.30;99.90
8338;DHT22;4206;48.634;9.516;2023-09-18T16:25:57;20.30;99.90
8338;DHT22;4206;48.634;9.516;2023-09-18T16:28:24;20.20;99.90
8338;DHT22;4206;48.634;9.516;2023-09-18T16:30:51;20.20;99.90
8338;DHT22;4206;48.634;9.516;2023-09-18T16:33:18;20.10;99.90
8338;DHT22;4206;48.634;9.516;2023-09-18T16:35:45;20.10;99.90
8338;DHT22;4206;48.634;9.516;2023-09-18T16:38:14;20.10;99.90